createdAt,value
2023-02-09T00:00:30.721Z,6.27
2023-02-09T00:04:38.015Z,6.27
2023-02-09T00:08:44.342Z,6.97
2023-02-09T00:13:04.928Z,6.50
2023-02-09T00:17:11.861Z,6.47
2023-02-09T00:21:17.390Z,6.77
2023-02-09T00:25:27.488Z,7.63
2023-02-09T00:29:31.029Z,7.33
2023-02-09T00:33:34.174Z,7.30
2023-02-09T00:37:39.070Z,6.87
2023-02-09T00:42:00.074Z,7.33
2023-02-09T00:46:06.434Z,8.00
2023-02-09T00:50:15.515Z,6.57
2023-02-09T00:54:28.544Z,7.80
2023-02-09T00:58:32.082Z,7.67
2023-02-09T01:02:38.981Z,7.17
2023-02-09T01:06:46.424Z,8.50
2023-02-09T01:10:58.657Z,7.50
2023-02-09T01:15:04.103Z,7.53
2023-02-09T01:19:13.850Z,7.77
2023-02-09T01:23:18.649Z,7.63
2023-02-09T01:27:26.362Z,7.47
2023-02-09T01:31:35.543Z,8.07
2023-02-09T01:35:43.730Z,7.50
2023-02-09T01:39:50.746Z,8.83
2023-02-09T01:43:58.728Z,8.53
2023-02-09T01:48:04.804Z,8.50
2023-02-09T01:52:12.679Z,8.43
2023-02-09T01:56:26.089Z,8.57
2023-02-09T02:00:30.954Z,9.47
2023-02-09T02:04:35.393Z,9.93
2023-02-09T02:08:46.256Z,8.43
2023-02-09T02:12:51.942Z,8.83
2023-02-09T02:17:09.646Z,9.07
2023-02-09T02:21:37.671Z,9.27
2023-02-09T02:26:12.700Z,9.67
2023-02-09T02:30:40.243Z,9.17
2023-02-09T02:34:48.877Z,9.93
2023-02-09T02:38:58.194Z,9.37
2023-02-09T02:43:14.821Z,9.43
2023-02-09T02:47:21.579Z,10.00
2023-02-09T02:51:33.745Z,10.13
2023-02-09T02:55:41.599Z,10.57
2023-02-09T02:59:55.009Z,9.50
2023-02-09T03:04:02.518Z,9.10
2023-02-09T03:08:18.293Z,9.73
2023-02-09T03:12:33.604Z,10.57
2023-02-09T03:16:47.021Z,9.37
2023-02-09T03:20:53.866Z,10.33
2023-02-09T03:25:09.514Z,9.50
2023-02-09T03:29:21.223Z,9.17
2023-02-09T03:33:28.532Z,9.20
2023-02-09T03:37:34.919Z,10.07
2023-02-09T03:41:42.270Z,10.50
2023-02-09T03:45:49.859Z,10.53
2023-02-09T03:49:55.465Z,11.37
2023-02-09T03:53:59.681Z,10.83
2023-02-09T03:58:07.999Z,11.40
2023-02-09T04:02:12.123Z,11.93
2023-02-09T04:06:16.534Z,10.53
2023-02-09T04:10:25.346Z,11.70
2023-02-09T04:14:33.071Z,10.53
2023-02-09T04:18:37.534Z,10.40
2023-02-09T04:22:45.509Z,10.73
2023-02-09T04:26:50.315Z,11.60
2023-02-09T04:30:57.445Z,11.70
2023-02-09T04:35:03.868Z,11.40
2023-02-09T04:39:07.986Z,10.30
2023-02-09T04:43:15.472Z,11.07
2023-02-09T04:47:20.801Z,10.83
2023-02-09T04:51:28.056Z,12.13
2023-02-09T04:55:34.384Z,11.57
2023-02-09T04:59:43.711Z,11.57
2023-02-09T05:03:48.923Z,11.93
2023-02-09T05:07:54.066Z,11.70
2023-02-09T05:12:01.653Z,11.90
2023-02-09T05:16:16.329Z,12.07
2023-02-09T05:20:22.991Z,11.93
2023-02-09T05:24:26.280Z,11.53
2023-02-09T05:28:31.678Z,13.13
2023-02-09T05:32:35.012Z,12.20
2023-02-09T05:36:57.206Z,12.03
2023-02-09T05:41:06.814Z,11.47
2023-02-09T05:45:11.863Z,12.13
2023-02-09T05:49:14.755Z,12.33
2023-02-09T05:53:18.963Z,12.73
2023-02-09T05:57:21.816Z,12.93
2023-02-09T06:01:24.638Z,12.57
2023-02-09T06:05:28.086Z,12.17
2023-02-09T06:09:32.252Z,13.23
2023-02-09T06:13:35.158Z,13.17
2023-02-09T06:17:38.374Z,13.27
2023-02-09T06:21:41.362Z,13.57
2023-02-09T06:25:45.489Z,13.10
2023-02-09T06:29:48.286Z,14.07
2023-02-09T06:33:51.142Z,13.40
2023-02-09T06:37:57.661Z,13.00
2023-02-09T06:42:01.841Z,14.37
2023-02-09T06:46:08.671Z,12.90
2023-02-09T06:50:13.135Z,14.07
2023-02-09T06:54:16.099Z,12.53
2023-02-09T06:58:20.280Z,14.20
2023-02-09T07:02:23.187Z,13.47
2023-02-09T07:06:26.095Z,14.10
2023-02-09T07:10:28.959Z,16.77
2023-02-09T07:14:33.211Z,15.10
2023-02-09T07:18:36.957Z,13.60
2023-02-09T07:22:39.764Z,13.17
2023-02-09T07:26:42.741Z,26.93
2023-02-09T07:30:48.610Z,14.97
2023-02-09T07:34:51.927Z,15.03
2023-02-09T07:38:56.222Z,15.00
2023-02-09T07:42:59.273Z,14.83
2023-02-09T07:47:03.482Z,16.07
2023-02-09T07:51:07.140Z,15.73
2023-02-09T07:55:09.960Z,14.30
2023-02-09T07:59:12.839Z,14.37
2023-02-09T08:03:19.757Z,14.70
2023-02-09T08:07:22.839Z,15.47
2023-02-09T08:11:30.176Z,13.27
2023-02-09T08:15:43.690Z,14.63
2023-02-09T08:19:52.197Z,15.20
2023-02-09T08:23:58.298Z,16.43
2023-02-09T08:28:02.262Z,16.93
2023-02-09T08:32:05.849Z,15.53
2023-02-09T08:36:11.541Z,16.07
2023-02-09T08:40:15.729Z,15.53
2023-02-09T08:44:18.574Z,16.83
2023-02-09T08:48:21.362Z,17.83
2023-02-09T08:52:25.790Z,16.77
2023-02-09T08:56:28.628Z,18.60
2023-02-09T09:00:32.222Z,17.63
2023-02-09T09:04:35.048Z,14.60
2023-02-09T09:08:40.781Z,14.93
2023-02-09T09:12:44.852Z,13.63
2023-02-09T09:16:47.760Z,15.10
2023-02-09T09:20:50.704Z,14.13
2023-02-09T09:24:55.341Z,14.90
2023-02-09T09:28:58.242Z,13.97
2023-02-09T09:33:01.201Z,13.03
2023-02-09T09:37:04.065Z,13.97
2023-02-09T09:41:19.913Z,14.10
2023-02-09T09:45:26.168Z,15.23
2023-02-09T09:49:32.487Z,13.53
2023-02-09T09:53:37.893Z,54.80
2023-02-09T09:57:45.318Z,14.10
2023-02-09T10:01:50.208Z,13.83
2023-02-09T10:05:55.343Z,13.27
2023-02-09T10:10:04.348Z,14.00
2023-02-09T10:14:11.029Z,14.10
2023-02-09T10:18:16.996Z,12.83
2023-02-09T10:22:21.920Z,14.63
2023-02-09T10:26:26.318Z,13.33
2023-02-09T10:30:30.859Z,14.60
2023-02-09T10:34:42.303Z,13.03
2023-02-09T10:38:45.205Z,12.67
2023-02-09T10:42:56.987Z,13.57
2023-02-09T10:47:12.705Z,12.77
2023-02-09T10:51:17.288Z,12.63
2023-02-09T10:55:23.892Z,12.73
2023-02-09T10:59:27.039Z,12.43
2023-02-09T11:03:31.411Z,12.53
2023-02-09T11:07:38.455Z,13.23
2023-02-09T11:11:42.760Z,14.03
2023-02-09T11:16:26.736Z,12.37
2023-02-09T11:20:36.955Z,13.50
2023-02-09T11:24:49.385Z,12.17
2023-02-09T11:29:00.007Z,12.23
2023-02-09T11:33:09.488Z,12.43
2023-02-09T11:37:28.912Z,14.10
2023-02-09T11:41:56.300Z,12.30
2023-02-09T11:46:04.563Z,12.00
2023-02-09T11:50:11.535Z,12.40
2023-02-09T11:54:18.565Z,13.47
2023-02-09T11:58:31.934Z,12.10
2023-02-09T12:02:47.420Z,12.27
2023-02-09T12:06:54.781Z,12.23
2023-02-09T12:11:12.731Z,11.97
2023-02-09T12:15:17.729Z,12.63
2023-02-09T12:19:27.093Z,11.73
2023-02-09T12:23:33.428Z,11.90
2023-02-09T12:27:39.003Z,11.87
2023-02-09T12:32:15.458Z,12.30
2023-02-09T12:36:30.777Z,12.60
2023-02-09T12:40:38.191Z,12.20
2023-02-09T12:44:55.145Z,11.33
2023-02-09T12:49:14.464Z,12.07
2023-02-09T12:53:45.221Z,13.87
2023-02-09T12:57:52.114Z,13.33
2023-02-09T13:02:27.279Z,12.33
2023-02-09T13:06:37.502Z,12.97
2023-02-09T13:10:43.844Z,13.00
2023-02-09T13:14:50.968Z,12.47
2023-02-09T13:19:01.968Z,13.50
2023-02-09T13:23:17.858Z,12.10
2023-02-09T13:27:22.927Z,13.23
2023-02-09T13:31:34.665Z,11.70
2023-02-09T13:35:50.770Z,12.60
2023-02-09T13:39:57.613Z,13.03
2023-02-09T13:44:00.562Z,13.37
2023-02-09T13:48:04.803Z,12.33
2023-02-09T13:52:14.967Z,12.57
2023-02-09T13:56:17.888Z,13.00
2023-02-09T14:00:29.280Z,13.13
2023-02-09T14:04:35.966Z,13.03
2023-02-09T14:08:41.600Z,14.53
2023-02-09T14:12:55.853Z,14.10
2023-02-09T14:17:25.273Z,14.00
2023-02-09T14:21:32.556Z,14.53
2023-02-09T14:25:36.877Z,14.27
2023-02-09T14:29:46.805Z,15.07
2023-02-09T14:33:51.896Z,15.17
2023-02-09T14:37:57.202Z,15.27
2023-02-09T14:42:14.822Z,15.73
2023-02-09T14:46:17.633Z,15.00
2023-02-09T14:50:23.454Z,15.90
2023-02-09T14:54:28.170Z,15.97
2023-02-09T14:58:34.896Z,15.47
2023-02-09T15:02:37.791Z,20.20
2023-02-09T15:06:42.299Z,16.17
2023-02-09T15:10:47.869Z,15.80
2023-02-09T15:14:54.952Z,17.87
2023-02-09T15:18:57.875Z,16.87
2023-02-09T15:23:01.951Z,16.27
2023-02-09T15:27:04.930Z,16.73
2023-02-09T15:31:14.436Z,15.03
2023-02-09T15:35:20.486Z,15.40
2023-02-09T15:39:25.177Z,16.07
2023-02-09T15:43:45.797Z,18.97
2023-02-09T15:47:50.021Z,17.23
2023-02-09T15:51:52.938Z,17.03
2023-02-09T15:55:58.749Z,16.47
2023-02-09T16:00:01.696Z,15.17
2023-02-09T16:04:14.023Z,18.37
2023-02-09T16:08:20.949Z,17.50
2023-02-09T16:12:23.825Z,16.07
2023-02-09T16:16:27.832Z,16.10
2023-02-09T16:20:32.527Z,18.20
2023-02-09T16:24:39.878Z,16.20
2023-02-09T16:28:42.715Z,16.63
2023-02-09T16:32:45.835Z,16.80
2023-02-09T16:36:50.661Z,18.57
2023-02-09T16:40:55.115Z,15.37
2023-02-09T16:44:58.227Z,16.17
2023-02-09T16:49:02.462Z,26.20
2023-02-09T16:53:18.673Z,18.27
2023-02-09T16:57:24.064Z,20.27
2023-02-09T17:01:26.944Z,18.13
2023-02-09T17:05:32.548Z,17.77
2023-02-09T17:09:36.801Z,19.37
2023-02-09T17:13:39.957Z,29.83
2023-02-09T17:17:48.025Z,19.87
2023-02-09T17:21:50.830Z,17.97
2023-02-09T17:25:55.964Z,18.63
2023-02-09T17:29:58.783Z,18.47
2023-02-09T17:34:04.025Z,18.87
2023-02-09T17:38:07.673Z,19.73
2023-02-09T17:42:21.810Z,21.17
2023-02-09T17:46:25.019Z,19.83
2023-02-09T17:50:27.932Z,20.37
2023-02-09T17:54:32.510Z,22.97
2023-02-09T17:58:36.659Z,21.30
2023-02-09T18:02:39.522Z,23.07
2023-02-09T18:06:42.664Z,22.43
2023-02-09T18:10:45.870Z,24.17
2023-02-09T18:14:50.048Z,23.33
2023-02-09T18:18:53.056Z,23.73
2023-02-09T18:22:56.497Z,22.93
2023-02-09T18:26:59.683Z,27.30
2023-02-09T18:31:06.353Z,25.00
2023-02-09T18:35:11.654Z,25.00
2023-02-09T18:39:16.282Z,27.07
2023-02-09T18:43:19.083Z,25.47
2023-02-09T18:47:23.508Z,26.53
2023-02-09T18:51:26.388Z,29.03
2023-02-09T18:55:32.011Z,26.67
2023-02-09T18:59:34.876Z,24.10
2023-02-09T19:03:39.145Z,29.20
2023-02-09T19:07:42.354Z,26.03
2023-02-09T19:11:45.266Z,26.70
2023-02-09T19:15:48.414Z,24.87
2023-02-09T19:19:52.953Z,25.73
2023-02-09T19:23:55.976Z,26.03
2023-02-09T19:27:58.888Z,27.90
2023-02-09T19:32:02.945Z,26.73
2023-02-09T19:36:08.100Z,27.63
2023-02-09T19:40:20.884Z,32.57
2023-02-09T19:44:23.714Z,31.47
2023-02-09T19:48:26.528Z,35.00
2023-02-09T19:52:30.956Z,30.53
2023-02-09T19:56:33.735Z,28.90
2023-02-09T20:00:36.569Z,29.07
2023-02-09T20:04:39.579Z,33.87
2023-02-09T20:08:44.306Z,33.57
2023-02-09T20:12:47.462Z,38.93
2023-02-09T20:16:50.311Z,37.57
2023-02-09T20:20:53.173Z,32.30
2023-02-09T20:24:57.374Z,27.73
2023-02-09T20:29:00.464Z,32.30
2023-02-09T20:33:03.468Z,30.27
2023-02-09T20:37:06.285Z,32.07
2023-02-09T20:41:11.103Z,32.30
2023-02-09T20:45:33.017Z,29.23
2023-02-09T20:49:37.049Z,31.20
2023-02-09T20:53:39.868Z,29.70
2023-02-09T20:57:44.473Z,29.40
2023-02-09T21:01:48.019Z,29.63
2023-02-09T21:05:50.865Z,30.97
2023-02-09T21:09:55.802Z,30.27
2023-02-09T21:14:01.157Z,29.87
2023-02-09T21:18:06.557Z,32.80
2023-02-09T21:22:09.666Z,30.40
2023-02-09T21:26:14.321Z,31.73
2023-02-09T21:30:18.625Z,29.23
2023-02-09T21:34:21.490Z,31.23
2023-02-09T21:38:25.171Z,30.80
2023-02-09T21:42:28.704Z,32.67
2023-02-09T21:46:33.737Z,33.43
2023-02-09T21:50:36.536Z,36.23
2023-02-09T21:54:39.393Z,39.23
2023-02-09T21:58:42.559Z,35.17
2023-02-09T22:02:53.025Z,34.47
2023-02-09T22:06:56.330Z,35.30
2023-02-09T22:11:00.477Z,38.70
2023-02-09T22:15:03.600Z,38.87
2023-02-09T22:19:07.782Z,38.07
2023-02-09T22:23:10.614Z,35.30
2023-02-09T22:27:13.408Z,33.90
2023-02-09T22:31:19.188Z,33.77
2023-02-09T22:35:23.444Z,34.93
2023-02-09T22:39:26.302Z,34.87
2023-02-09T22:43:29.333Z,34.80
2023-02-09T22:47:32.564Z,36.47
2023-02-09T22:51:37.668Z,33.43
2023-02-09T22:55:40.586Z,33.60
2023-02-09T22:59:43.538Z,38.40
2023-02-09T23:03:46.488Z,39.80
2023-02-09T23:07:50.882Z,32.87
2023-02-09T23:11:53.789Z,32.77
2023-02-09T23:15:56.755Z,33.77
2023-02-09T23:19:59.620Z,30.63
2023-02-09T23:24:03.857Z,35.97
2023-02-09T23:28:06.747Z,33.70
2023-02-09T23:32:09.665Z,34.70
2023-02-09T23:36:14.898Z,34.73
2023-02-09T23:40:19.498Z,31.83
2023-02-09T23:44:22.318Z,30.73
2023-02-09T23:48:25.121Z,32.93
2023-02-09T23:52:27.933Z,28.30
2023-02-09T23:56:36.839Z,39.03
